createdAt,value
2023-02-17T00:01:26.972Z,10.00
2023-02-17T00:03:54.609Z,10.32
2023-02-17T00:06:24.894Z,10.90
2023-02-17T00:08:53.216Z,10.95
2023-02-17T00:11:20.868Z,12.00
2023-02-17T00:13:48.368Z,11.85
2023-02-17T00:16:21.345Z,11.85
2023-02-17T00:18:53.952Z,11.18
2023-02-17T00:21:23.402Z,12.30
2023-02-17T00:23:51.726Z,11.82
2023-02-17T00:26:20.589Z,12.45
2023-02-17T00:28:49.199Z,12.73
2023-02-17T00:31:19.928Z,12.10
2023-02-17T00:33:47.376Z,13.00
2023-02-17T00:36:18.222Z,13.60
2023-02-17T00:38:48.060Z,12.90
2023-02-17T00:41:18.815Z,13.02
2023-02-17T00:43:47.172Z,14.05
2023-02-17T00:46:17.271Z,14.13
2023-02-17T00:48:47.594Z,13.30
2023-02-17T00:51:16.421Z,13.77
2023-02-17T00:53:44.397Z,13.57
2023-02-17T00:56:11.985Z,13.30
2023-02-17T00:58:41.593Z,13.45
2023-02-17T01:01:10.482Z,12.43
2023-02-17T01:03:42.340Z,13.38
2023-02-17T01:06:16.836Z,12.73
2023-02-17T01:08:44.213Z,12.80
2023-02-17T01:11:21.871Z,12.75
2023-02-17T01:13:49.510Z,12.57
2023-02-17T01:16:26.325Z,13.82
2023-02-17T01:18:53.839Z,13.98
2023-02-17T01:21:27.382Z,14.10
2023-02-17T01:23:57.671Z,12.93
2023-02-17T01:26:27.337Z,14.13
2023-02-17T01:28:55.220Z,12.57
2023-02-17T01:31:23.737Z,12.93
2023-02-17T01:33:51.040Z,13.65
2023-02-17T01:36:19.764Z,14.80
2023-02-17T01:38:47.679Z,12.73
2023-02-17T01:41:19.641Z,14.75
2023-02-17T01:44:16.421Z,13.15
2023-02-17T01:46:46.798Z,14.85
2023-02-17T01:49:17.790Z,13.95
2023-02-17T01:51:51.415Z,13.68
2023-02-17T01:54:29.363Z,14.85
2023-02-17T01:56:59.071Z,14.05
2023-02-17T01:59:26.963Z,14.70
2023-02-17T02:01:58.631Z,15.02
2023-02-17T02:04:30.495Z,14.13
2023-02-17T02:06:57.916Z,14.10
2023-02-17T02:09:41.839Z,13.48
2023-02-17T02:12:28.009Z,13.73
2023-02-17T02:15:03.075Z,14.15
2023-02-17T02:17:47.667Z,13.80
2023-02-17T02:20:42.557Z,13.98
2023-02-17T02:23:35.383Z,13.25
2023-02-17T02:26:02.583Z,13.77
2023-02-17T02:28:57.484Z,13.20
2023-02-17T02:32:08.668Z,12.07
2023-02-17T02:34:47.860Z,13.13
2023-02-17T02:37:21.762Z,13.02
2023-02-17T02:39:53.338Z,12.95
2023-02-17T02:42:24.653Z,13.32
2023-02-17T02:44:52.489Z,13.18
2023-02-17T02:47:49.017Z,12.30
2023-02-17T02:50:35.808Z,12.85
2023-02-17T02:53:12.790Z,13.27
2023-02-17T02:56:02.082Z,13.30
2023-02-17T02:58:44.289Z,13.07
2023-02-17T03:01:37.488Z,13.10
2023-02-17T03:04:17.871Z,12.43
2023-02-17T03:07:21.344Z,12.50
2023-02-17T03:09:57.954Z,11.45
2023-02-17T03:12:27.207Z,12.18
2023-02-17T03:15:02.715Z,12.25
2023-02-17T03:17:33.842Z,12.27
2023-02-17T03:20:04.691Z,12.63
2023-02-17T03:22:43.604Z,12.38
2023-02-17T03:25:11.304Z,12.73
2023-02-17T03:27:38.777Z,12.02
2023-02-17T03:30:08.228Z,12.55
2023-02-17T03:32:36.014Z,12.77
2023-02-17T03:35:04.046Z,11.93
2023-02-17T03:37:31.346Z,12.40
2023-02-17T03:39:58.523Z,12.85
2023-02-17T03:42:25.810Z,12.35
2023-02-17T03:44:53.098Z,11.85
2023-02-17T03:47:20.504Z,11.73
2023-02-17T03:49:47.854Z,13.38
2023-02-17T03:52:15.404Z,12.82
2023-02-17T03:54:42.729Z,12.63
2023-02-17T03:57:10.167Z,12.20
2023-02-17T03:59:38.060Z,12.68
2023-02-17T04:02:05.374Z,12.05
2023-02-17T04:04:32.737Z,11.57
2023-02-17T04:07:00.019Z,12.65
2023-02-17T04:09:27.428Z,12.05
2023-02-17T04:11:54.657Z,11.35
2023-02-17T04:14:21.968Z,11.05
2023-02-17T04:16:49.259Z,12.50
2023-02-17T04:19:16.580Z,11.60
2023-02-17T04:21:43.881Z,12.02
2023-02-17T04:24:11.179Z,12.40
2023-02-17T04:26:45.529Z,13.05
2023-02-17T04:29:14.140Z,10.73
2023-02-17T04:31:42.156Z,12.68
2023-02-17T04:34:09.616Z,12.07
2023-02-17T04:36:36.864Z,12.32
2023-02-17T04:39:04.357Z,12.85
2023-02-17T04:41:31.747Z,13.13
2023-02-17T04:43:58.966Z,12.23
2023-02-17T04:46:26.471Z,13.35
2023-02-17T04:48:54.030Z,13.52
2023-02-17T04:51:21.408Z,12.98
2023-02-17T04:53:48.726Z,13.23
2023-02-17T04:56:15.977Z,13.80
2023-02-17T04:58:43.407Z,13.93
2023-02-17T05:01:10.866Z,13.63
2023-02-17T05:03:38.106Z,13.55
2023-02-17T05:06:05.982Z,14.32
2023-02-17T05:08:34.461Z,14.60
2023-02-17T05:11:01.737Z,15.13
2023-02-17T05:13:28.959Z,15.13
2023-02-17T05:15:56.382Z,14.52
2023-02-17T05:18:23.744Z,13.82
2023-02-17T05:20:52.241Z,13.93
2023-02-17T05:23:19.517Z,14.52
2023-02-17T05:25:46.822Z,14.48
2023-02-17T05:28:14.259Z,13.10
2023-02-17T05:30:41.561Z,13.98
2023-02-17T05:33:08.832Z,13.93
2023-02-17T05:35:36.710Z,14.57
2023-02-17T05:38:04.605Z,13.25
2023-02-17T05:40:32.073Z,13.40
2023-02-17T05:42:59.480Z,13.35
2023-02-17T05:45:26.752Z,13.00
2023-02-17T05:47:54.105Z,14.52
2023-02-17T05:50:21.499Z,15.23
2023-02-17T05:52:49.517Z,13.35
2023-02-17T05:55:16.899Z,13.82
2023-02-17T05:57:44.268Z,14.27
2023-02-17T06:00:12.369Z,12.98
2023-02-17T06:02:39.818Z,14.55
2023-02-17T06:05:08.034Z,14.07
2023-02-17T06:07:35.273Z,13.98
2023-02-17T06:10:02.583Z,14.15
2023-02-17T06:12:29.878Z,13.52
2023-02-17T06:14:57.159Z,13.57
2023-02-17T06:17:24.389Z,14.27
2023-02-17T06:19:51.672Z,13.23
2023-02-17T06:22:19.138Z,12.60
2023-02-17T06:24:46.556Z,12.93
2023-02-17T06:27:13.941Z,12.50
2023-02-17T06:29:41.315Z,12.90
2023-02-17T06:32:08.696Z,13.45
2023-02-17T06:34:36.051Z,11.93
2023-02-17T06:37:03.380Z,12.32
2023-02-17T06:39:30.739Z,13.20
2023-02-17T06:41:58.152Z,12.25
2023-02-17T06:44:25.501Z,12.32
2023-02-17T06:46:52.966Z,14.02
2023-02-17T06:49:20.409Z,12.30
2023-02-17T06:51:47.611Z,13.00
2023-02-17T06:54:16.069Z,13.10
2023-02-17T06:56:43.334Z,12.90
2023-02-17T06:59:10.686Z,12.98
2023-02-17T07:01:38.770Z,13.27
2023-02-17T07:04:06.095Z,13.45
2023-02-17T07:06:33.407Z,12.80
2023-02-17T07:09:02.616Z,12.27
2023-02-17T07:11:32.960Z,12.25
2023-02-17T07:14:00.757Z,13.07
2023-02-17T07:16:28.075Z,13.20
2023-02-17T07:18:57.693Z,11.80
2023-02-17T07:21:25.065Z,12.90
2023-02-17T07:23:52.385Z,12.57
2023-02-17T07:26:19.726Z,11.82
2023-02-17T07:28:47.048Z,12.05
2023-02-17T07:31:17.152Z,12.00
2023-02-17T07:33:48.222Z,11.90
2023-02-17T07:36:19.126Z,11.70
2023-02-17T07:38:46.450Z,11.57
2023-02-17T07:41:16.543Z,11.18
2023-02-17T07:43:44.582Z,10.82
2023-02-17T07:46:13.126Z,12.43
2023-02-17T07:48:40.959Z,11.00
2023-02-17T07:51:14.128Z,11.70
2023-02-17T07:53:41.717Z,10.77
2023-02-17T07:56:12.549Z,10.40
2023-02-17T07:58:41.954Z,11.07
2023-02-17T08:01:10.580Z,11.52
2023-02-17T08:03:38.538Z,11.98
2023-02-17T08:06:10.190Z,11.70
2023-02-17T08:08:55.926Z,10.60
2023-02-17T08:11:43.448Z,11.10
2023-02-17T08:14:13.107Z,10.25
2023-02-17T08:16:41.125Z,12.02
2023-02-17T08:19:08.904Z,10.73
2023-02-17T08:21:36.215Z,10.32
2023-02-17T08:24:03.579Z,10.38
2023-02-17T08:26:31.005Z,10.32
2023-02-17T08:28:58.255Z,9.70
2023-02-17T08:31:31.361Z,10.63
2023-02-17T08:34:00.971Z,10.07
2023-02-17T08:36:29.235Z,9.40
2023-02-17T08:38:57.251Z,9.40
2023-02-17T08:41:30.976Z,9.85
2023-02-17T08:44:04.341Z,10.00
2023-02-17T08:46:31.739Z,9.05
2023-02-17T08:48:59.101Z,9.32
2023-02-17T08:51:27.224Z,8.82
2023-02-17T08:53:58.061Z,7.93
2023-02-17T08:56:27.549Z,9.13
2023-02-17T08:58:55.427Z,8.50
2023-02-17T09:01:23.613Z,7.78
2023-02-17T09:03:52.950Z,7.90
2023-02-17T09:06:21.582Z,8.15
2023-02-17T09:08:49.344Z,7.07
2023-02-17T09:11:19.970Z,7.22
2023-02-17T09:13:47.442Z,6.72
2023-02-17T09:16:14.950Z,6.88
2023-02-17T09:18:42.367Z,6.68
2023-02-17T09:21:12.203Z,6.43
2023-02-17T09:23:40.662Z,6.03
2023-02-17T09:26:10.346Z,7.03
2023-02-17T09:28:38.669Z,6.20
2023-02-17T09:31:13.764Z,6.05
2023-02-17T09:33:42.060Z,6.10
2023-02-17T09:36:11.911Z,5.57
2023-02-17T09:38:42.021Z,5.65
2023-02-17T09:41:31.978Z,5.53
2023-02-17T09:43:59.963Z,4.80
2023-02-17T09:46:38.609Z,5.75
2023-02-17T09:49:18.043Z,5.68
2023-02-17T09:51:48.432Z,5.50
2023-02-17T09:54:43.758Z,5.72
2023-02-17T09:57:20.921Z,5.15
2023-02-17T10:00:16.075Z,4.45
2023-02-17T10:02:55.000Z,4.07
2023-02-17T10:05:26.946Z,4.80
2023-02-17T10:08:17.509Z,4.50
2023-02-17T10:11:10.893Z,4.15
2023-02-17T10:13:41.041Z,4.07
2023-02-17T10:16:18.056Z,4.50
2023-02-17T10:19:10.642Z,4.70
2023-02-17T10:21:46.367Z,4.13
2023-02-17T10:24:13.676Z,3.72
2023-02-17T10:26:49.183Z,4.00
2023-02-17T10:29:45.620Z,4.15
2023-02-17T10:32:22.519Z,3.95
2023-02-17T10:35:04.694Z,3.78
2023-02-17T10:37:43.093Z,3.42
2023-02-17T10:40:17.251Z,3.60
2023-02-17T10:42:46.281Z,4.32
2023-02-17T10:45:26.842Z,4.25
2023-02-17T10:48:08.824Z,3.53
2023-02-17T10:50:38.175Z,3.70
2023-02-17T10:53:20.658Z,3.60
2023-02-17T10:56:10.442Z,3.63
2023-02-17T10:58:44.563Z,3.53
2023-02-17T11:01:14.666Z,2.67
2023-02-17T11:03:42.349Z,3.58
2023-02-17T11:06:24.018Z,3.50
2023-02-17T11:08:56.362Z,3.13
2023-02-17T11:11:26.949Z,3.70
2023-02-17T11:14:06.211Z,3.45
2023-02-17T11:16:47.596Z,2.88
2023-02-17T11:19:34.721Z,3.17
2023-02-17T11:22:07.300Z,2.97
2023-02-17T11:24:35.787Z,3.40
2023-02-17T11:27:10.398Z,2.92
2023-02-17T11:29:40.431Z,2.63
2023-02-17T11:32:12.645Z,2.70
2023-02-17T11:34:42.788Z,2.90
2023-02-17T11:37:10.034Z,2.88
2023-02-17T11:39:46.108Z,2.47
2023-02-17T11:42:21.951Z,2.70
2023-02-17T11:44:50.141Z,2.85
2023-02-17T11:47:37.323Z,2.80
2023-02-17T11:50:13.736Z,2.40
2023-02-17T11:52:43.814Z,2.47
2023-02-17T11:55:18.593Z,2.97
2023-02-17T11:57:53.197Z,2.63
2023-02-17T12:00:40.778Z,2.53
2023-02-17T12:03:25.231Z,2.25
2023-02-17T12:06:12.268Z,2.38
2023-02-17T12:09:14.817Z,3.28
2023-02-17T12:12:05.294Z,2.50
2023-02-17T12:15:04.660Z,2.17
2023-02-17T12:18:08.851Z,2.40
2023-02-17T12:21:02.387Z,2.30
2023-02-17T12:23:54.180Z,2.13
2023-02-17T12:26:43.434Z,2.22
2023-02-17T12:29:13.801Z,1.95
2023-02-17T12:32:02.368Z,2.30
2023-02-17T12:34:41.300Z,2.75
2023-02-17T12:37:19.241Z,2.17
2023-02-17T12:39:55.159Z,2.58
2023-02-17T12:42:31.817Z,1.80
2023-02-17T12:45:21.074Z,2.08
2023-02-17T12:48:04.080Z,2.55
2023-02-17T12:50:49.639Z,1.92
2023-02-17T12:53:25.633Z,1.90
2023-02-17T12:55:57.892Z,2.50
2023-02-17T12:58:31.868Z,2.50
2023-02-17T13:01:10.741Z,1.83
2023-02-17T13:03:38.299Z,1.95
2023-02-17T13:06:41.564Z,2.03
2023-02-17T13:11:54.858Z,2.33
2023-02-17T13:14:38.596Z,1.98
2023-02-17T13:17:05.884Z,1.73
2023-02-17T13:19:35.288Z,2.00
2023-02-17T13:22:03.441Z,3.03
2023-02-17T13:24:34.936Z,1.98
2023-02-17T13:27:23.413Z,2.25
2023-02-17T13:30:22.900Z,2.15
2023-02-17T13:33:02.417Z,2.30
2023-02-17T13:35:34.280Z,2.38
2023-02-17T13:38:01.906Z,2.42
2023-02-17T13:40:42.805Z,1.88
2023-02-17T13:43:20.420Z,2.58
2023-02-17T13:46:03.876Z,2.28
2023-02-17T13:48:33.863Z,2.03
2023-02-17T13:51:06.728Z,2.28
2023-02-17T13:53:42.408Z,2.25
2023-02-17T13:56:12.653Z,1.75
2023-02-17T13:58:42.025Z,1.80
2023-02-17T14:01:16.762Z,2.50
2023-02-17T14:03:55.448Z,1.70
2023-02-17T14:06:33.494Z,2.47
2023-02-17T14:09:01.057Z,1.65
2023-02-17T14:11:31.423Z,2.20
2023-02-17T14:14:00.708Z,2.83
2023-02-17T14:16:35.500Z,2.42
2023-02-17T14:19:24.369Z,2.55
2023-02-17T14:21:59.264Z,2.28
2023-02-17T14:24:33.655Z,1.90
2023-02-17T14:27:04.395Z,2.38
2023-02-17T14:29:45.589Z,2.30
2023-02-17T14:32:36.310Z,2.65
2023-02-17T14:35:14.038Z,2.15
2023-02-17T14:37:42.577Z,1.70
2023-02-17T14:40:24.684Z,2.15
2023-02-17T14:42:52.338Z,2.30
2023-02-17T14:45:20.275Z,3.30
2023-02-17T14:47:47.795Z,1.92
2023-02-17T14:50:17.571Z,2.42
2023-02-17T14:52:47.999Z,2.65
2023-02-17T14:55:39.117Z,2.08
2023-02-17T14:58:06.434Z,2.10
2023-02-17T15:00:33.707Z,2.75
2023-02-17T15:03:01.071Z,3.00
2023-02-17T15:05:28.474Z,2.35
2023-02-17T15:07:55.845Z,2.17
2023-02-17T15:10:27.875Z,2.28
2023-02-17T15:12:56.244Z,2.25
2023-02-17T15:15:23.991Z,2.22
2023-02-17T15:17:51.256Z,1.92
2023-02-17T15:20:18.723Z,2.88
2023-02-17T15:22:47.180Z,2.25
2023-02-17T15:25:17.227Z,2.45
2023-02-17T15:27:45.246Z,2.67
2023-02-17T15:30:18.627Z,3.00
2023-02-17T15:32:46.832Z,2.45
2023-02-17T15:35:18.549Z,2.38
2023-02-17T15:37:45.946Z,2.10
2023-02-17T15:40:24.197Z,2.78
2023-02-17T15:42:56.448Z,2.40
2023-02-17T15:45:24.964Z,3.00
2023-02-17T15:47:58.213Z,2.42
2023-02-17T15:50:25.521Z,2.63
2023-02-17T15:52:52.983Z,2.20
2023-02-17T15:55:21.404Z,2.10
2023-02-17T15:57:56.924Z,2.70
2023-02-17T16:00:34.745Z,2.45
2023-02-17T16:03:02.661Z,2.13
2023-02-17T16:05:30.993Z,2.75
2023-02-17T16:07:58.497Z,1.63
2023-02-17T16:10:32.689Z,1.77
2023-02-17T16:13:03.888Z,2.13
2023-02-17T16:15:32.918Z,2.17
2023-02-17T16:18:00.442Z,2.15
2023-02-17T16:20:34.650Z,1.88
2023-02-17T16:23:03.121Z,1.90
2023-02-17T16:25:31.104Z,1.85
2023-02-17T16:27:58.645Z,2.17
2023-02-17T16:30:31.053Z,1.40
2023-02-17T16:32:58.839Z,1.90
2023-02-17T16:35:29.235Z,2.55
2023-02-17T16:38:08.508Z,1.92
2023-02-17T16:40:37.466Z,2.22
2023-02-17T16:43:04.849Z,1.90
2023-02-17T16:45:33.841Z,2.38
2023-02-17T16:48:02.273Z,3.17
2023-02-17T16:50:34.612Z,2.17
2023-02-17T16:53:04.345Z,2.50
2023-02-17T16:55:34.479Z,1.85
2023-02-17T16:58:02.588Z,1.90
2023-02-17T17:00:32.868Z,2.40
2023-02-17T17:03:00.402Z,2.20
2023-02-17T17:05:31.389Z,1.75
2023-02-17T17:08:02.193Z,2.10
2023-02-17T17:10:50.916Z,1.63
2023-02-17T17:13:18.286Z,2.58
2023-02-17T17:15:51.805Z,2.20
2023-02-17T17:18:45.039Z,2.47
2023-02-17T17:21:14.376Z,2.70
2023-02-17T17:23:42.234Z,3.33
2023-02-17T17:26:24.638Z,2.42
2023-02-17T17:28:52.437Z,1.98
2023-02-17T17:31:21.307Z,2.38
2023-02-17T17:33:50.820Z,2.08
2023-02-17T17:36:41.820Z,3.20
2023-02-17T17:39:20.441Z,2.42
2023-02-17T17:41:48.361Z,2.63
2023-02-17T17:44:15.957Z,1.85
2023-02-17T17:46:43.278Z,2.40
2023-02-17T17:49:14.290Z,2.25
2023-02-17T17:51:41.940Z,1.75
2023-02-17T17:54:09.833Z,2.50
2023-02-17T17:56:40.259Z,2.80
2023-02-17T17:59:07.643Z,1.83
2023-02-17T18:01:35.284Z,2.17
2023-02-17T18:04:02.887Z,2.13
2023-02-17T18:06:43.319Z,2.00
2023-02-17T18:09:25.812Z,1.70
2023-02-17T18:12:00.686Z,2.40
2023-02-17T18:14:27.985Z,2.30
2023-02-17T18:16:55.528Z,2.25
2023-02-17T18:19:23.762Z,2.00
2023-02-17T18:21:51.731Z,2.17
2023-02-17T18:24:20.363Z,2.25
2023-02-17T18:26:48.101Z,2.22
2023-02-17T18:29:15.668Z,2.42
2023-02-17T18:31:43.300Z,2.42
2023-02-17T18:34:11.283Z,2.00
2023-02-17T18:36:38.755Z,2.20
2023-02-17T18:39:06.438Z,2.25
2023-02-17T18:41:35.235Z,2.70
2023-02-17T18:44:05.155Z,2.72
2023-02-17T18:46:37.971Z,2.80
2023-02-17T18:51:33.075Z,2.47
2023-02-17T18:54:01.151Z,2.53
2023-02-17T18:56:31.716Z,2.38
2023-02-17T18:59:00.904Z,2.38
2023-02-17T19:01:34.865Z,3.63
2023-02-17T19:04:02.592Z,2.00
2023-02-17T19:06:34.396Z,2.65
2023-02-17T19:09:03.068Z,2.40
2023-02-17T19:11:33.549Z,2.10
2023-02-17T19:14:03.611Z,2.38
2023-02-17T19:16:32.556Z,2.63
2023-02-17T19:19:02.506Z,2.55
2023-02-17T19:21:30.027Z,2.15
2023-02-17T19:23:57.516Z,1.90
2023-02-17T19:26:26.486Z,2.50
2023-02-17T19:28:55.181Z,2.47
2023-02-17T19:31:23.454Z,2.58
2023-02-17T19:33:50.893Z,2.55
2023-02-17T19:36:21.413Z,3.05
2023-02-17T19:38:50.511Z,2.25
2023-02-17T19:41:18.859Z,2.20
2023-02-17T19:43:46.996Z,2.00
2023-02-17T19:46:21.182Z,2.03
2023-02-17T19:48:48.961Z,2.83
2023-02-17T19:51:16.355Z,2.42
2023-02-17T19:53:47.033Z,2.35
2023-02-17T19:56:25.231Z,2.53
2023-02-17T19:58:53.136Z,2.28
2023-02-17T20:01:28.617Z,2.20
2023-02-17T20:03:57.634Z,2.30
2023-02-17T20:06:37.715Z,2.28
2023-02-17T20:09:08.870Z,2.20
2023-02-17T20:11:37.045Z,2.25
2023-02-17T20:14:04.444Z,2.13
2023-02-17T20:16:32.436Z,1.88
2023-02-17T20:19:02.121Z,1.80
2023-02-17T20:21:31.667Z,2.47
2023-02-17T20:23:59.498Z,1.77
2023-02-17T20:26:33.613Z,3.13
2023-02-17T20:29:01.828Z,2.40
2023-02-17T20:31:29.937Z,2.88
2023-02-17T20:33:57.895Z,2.42
2023-02-17T20:36:25.307Z,2.83
2023-02-17T20:38:53.823Z,2.38
2023-02-17T20:41:23.249Z,2.53
2023-02-17T20:43:51.889Z,2.45
2023-02-17T20:46:37.387Z,3.63
2023-02-17T20:49:08.185Z,2.38
2023-02-17T20:51:36.351Z,2.10
2023-02-17T20:54:04.022Z,2.58
2023-02-17T20:56:42.668Z,2.50
2023-02-17T20:59:13.112Z,2.17
2023-02-17T21:01:41.376Z,2.10
2023-02-17T21:04:09.969Z,1.92
2023-02-17T21:06:43.225Z,1.98
2023-02-17T21:09:15.841Z,2.08
2023-02-17T21:11:43.457Z,1.70
2023-02-17T21:14:10.769Z,1.73
2023-02-17T21:16:38.714Z,1.70
2023-02-17T21:19:06.145Z,2.22
2023-02-17T21:21:35.856Z,2.88
2023-02-17T21:24:03.523Z,2.58
2023-02-17T21:26:30.941Z,1.45
2023-02-17T21:28:58.337Z,1.70
2023-02-17T21:31:29.089Z,1.80
2023-02-17T21:33:57.882Z,1.60
2023-02-17T21:36:26.961Z,1.35
2023-02-17T21:38:55.448Z,1.95
2023-02-17T21:41:26.669Z,2.67
2023-02-17T21:44:13.684Z,2.08
2023-02-17T21:46:43.177Z,1.70
2023-02-17T21:49:11.513Z,1.88
2023-02-17T21:51:39.874Z,1.63
2023-02-17T21:54:07.858Z,1.95
2023-02-17T21:56:36.454Z,2.05
2023-02-17T21:59:04.603Z,1.77
2023-02-17T22:01:32.235Z,1.55
2023-02-17T22:03:59.803Z,1.50
2023-02-17T22:06:28.528Z,1.20
2023-02-17T22:08:57.370Z,1.90
2023-02-17T22:11:28.368Z,1.90
2023-02-17T22:13:57.642Z,2.20
2023-02-17T22:16:26.045Z,1.90
2023-02-17T22:18:53.743Z,1.73
2023-02-17T22:21:21.072Z,1.58
2023-02-17T22:23:48.710Z,2.05
2023-02-17T22:26:22.057Z,1.90
2023-02-17T22:28:49.701Z,1.83
2023-02-17T22:31:20.050Z,2.00
2023-02-17T22:33:47.553Z,1.92
2023-02-17T22:36:17.839Z,1.60
2023-02-17T22:38:45.762Z,1.38
2023-02-17T22:41:18.739Z,1.98
2023-02-17T22:43:47.077Z,1.73
2023-02-17T22:46:16.612Z,1.73
2023-02-17T22:48:45.414Z,1.50
2023-02-17T22:51:16.223Z,1.33
2023-02-17T22:53:44.453Z,1.17
2023-02-17T22:56:12.060Z,1.45
2023-02-17T22:58:39.890Z,1.20
2023-02-17T23:01:21.469Z,1.45
2023-02-17T23:03:52.919Z,1.15
2023-02-17T23:06:31.334Z,1.42
2023-02-17T23:08:59.869Z,1.52
2023-02-17T23:11:48.088Z,1.60
2023-02-17T23:14:26.779Z,2.00
2023-02-17T23:16:57.891Z,1.60
2023-02-17T23:19:25.453Z,1.40
2023-02-17T23:21:55.981Z,1.50
2023-02-17T23:24:25.060Z,1.58
2023-02-17T23:26:53.204Z,1.63
2023-02-17T23:29:20.624Z,1.42
2023-02-17T23:31:47.868Z,1.73
2023-02-17T23:34:16.551Z,1.27
2023-02-17T23:36:45.306Z,1.67
2023-02-17T23:39:14.047Z,1.35
2023-02-17T23:41:42.996Z,2.00
2023-02-17T23:44:12.967Z,1.88
2023-02-17T23:46:41.236Z,1.77
2023-02-17T23:49:08.761Z,1.30
2023-02-17T23:51:36.026Z,1.52
2023-02-17T23:54:03.304Z,1.40
2023-02-17T23:56:35.320Z,1.42
2023-02-17T23:59:02.813Z,1.85
